sensor_id;sensor_type;location;lat;lon;timestamp;temperature;humidity
18934;DHT22;9599;53.706;10.384;2023-04-07T00:01:26;6.30;99.90
18934;DHT22;9599;53.706;10.384;2023-04-07T00:03:55;6.20;99.90
18934;DHT22;9599;53.706;10.384;2023-04-07T00:06:23;6.20;99.90
18934;DHT22;9599;53.706;10.384;2023-04-07T00:08:53;6.20;99.90
18934;DHT22;9599;53.706;10.384;2023-04-07T00:11:21;6.10;99.90
18934;DHT22;9599;53.706;10.384;2023-04-07T00:13:49;6.10;99.90
18934;DHT22;9599;53.706;10.384;2023-04-07T00:16:16;6.10;99.90
18934;DHT22;9599;53.706;10.384;2023-04-07T00:18:44;6.10;99.90
18934;DHT22;9599;53.706;10.384;2023-04-07T00:21:14;6.00;99.90
18934;DHT22;9599;53.706;10.384;2023-04-07T00:23:43;6.00;99.90
18934;DHT22;9599;53.706;10.384;2023-04-07T00:26:12;6.00;99.90
18934;DHT22;9599;53.706;10.384;2023-04-07T00:28:42;5.90;99.90
18934;DHT22;9599;53.706;10.384;2023-04-07T00:31:10;5.90;99.90
18934;DHT22;9599;53.706;10.384;2023-04-07T00:33:38;5.90;99.90
18934;DHT22;9599;53.706;10.384;2023-04-07T00:36:06;5.90;99.90
18934;DHT22;9599;53.706;10.384;2023-04-07T00:38:35;5.90;99.90
18934;DHT22;9599;53.706;10.384;2023-04-07T00:41:04;5.80;99.90
18934;DHT22;9599;53.706;10.384;2023-04-07T00:43:32;5.80;99.90
18934;DHT22;9599;53.706;10.384;2023-04-07T00:46:00;5.80;99.90
18934;DHT22;9599;53.706;10.384;2023-04-07T00:48:28;5.80;99.90
18934;DHT22;9599;53.706;10.384;2023-04-07T00:50:56;5.80;99.90
18934;DHT22;9599;53.706;10.384;2023-04-07T00:53:24;5.80;99.90
18934;DHT22;9599;53.706;10.384;2023-04-07T00:55:54;5.70;99.90
18934;DHT22;9599;53.706;10.384;2023-04-07T00:58:22;5.70;99.90
18934;DHT22;9599;53.706;10.384;2023-04-07T01:00:56;5.70;99.90
18934;DHT22;9599;53.706;10.384;2023-04-07T01:03:30;5.70;99.90
18934;DHT22;9599;53.706;10.384;2023-04-07T01:06:02;5.60;99.90
18934;DHT22;9599;53.706;10.384;2023-04-07T01:08:38;5.60;99.90
18934;DHT22;9599;53.706;10.384;2023-04-07T01:11:19;5.60;99.90
18934;DHT22;9599;53.706;10.384;2023-04-07T01:13:50;5.50;99.90
18934;DHT22;9599;53.706;10.384;2023-04-07T01:16:45;5.50;99.90
18934;DHT22;9599;53.706;10.384;2023-04-07T01:19:22;5.50;99.90
18934;DHT22;9599;53.706;10.384;2023-04-07T01:21:59;5.50;99.90
18934;DHT22;9599;53.706;10.384;2023-04-07T01:24:45;5.40;99.90
18934;DHT22;9599;53.706;10.384;2023-04-07T01:27:31;5.40;99.90
18934;DHT22;9599;53.706;10.384;2023-04-07T01:30:03;5.40;99.90
18934;DHT22;9599;53.706;10.384;2023-04-07T01:32:33;5.40;99.90
18934;DHT22;9599;53.706;10.384;2023-04-07T01:35:02;5.40;99.90
18934;DHT22;9599;53.706;10.384;2023-04-07T01:37:32;5.40;99.90
18934;DHT22;9599;53.706;10.384;2023-04-07T01:40:01;5.30;99.90
18934;DHT22;9599;53.706;10.384;2023-04-07T01:42:30;5.30;99.90
18934;DHT22;9599;53.706;10.384;2023-04-07T01:45:01;5.30;99.90
18934;DHT22;9599;53.706;10.384;2023-04-07T01:47:30;5.30;99.90
18934;DHT22;9599;53.706;10.384;2023-04-07T01:50:00;5.30;99.90
18934;DHT22;9599;53.706;10.384;2023-04-07T01:52:30;5.30;99.90
18934;DHT22;9599;53.706;10.384;2023-04-07T01:54:59;5.20;99.90
18934;DHT22;9599;53.706;10.384;2023-04-07T01:57:29;5.20;99.90
18934;DHT22;9599;53.706;10.384;2023-04-07T02:00:04;5.20;99.90
18934;DHT22;9599;53.706;10.384;2023-04-07T02:02:43;5.20;99.90
18934;DHT22;9599;53.706;10.384;2023-04-07T02:05:15;5.10;99.90
18934;DHT22;9599;53.706;10.384;2023-04-07T02:07:49;5.10;99.90
18934;DHT22;9599;53.706;10.384;2023-04-07T02:10:21;5.10;99.90
18934;DHT22;9599;53.706;10.384;2023-04-07T02:12:52;5.00;99.90
18934;DHT22;9599;53.706;10.384;2023-04-07T02:15:22;5.10;99.90
18934;DHT22;9599;53.706;10.384;2023-04-07T02:17:53;5.00;99.90
18934;DHT22;9599;53.706;10.384;2023-04-07T02:20:23;5.00;99.90
18934;DHT22;9599;53.706;10.384;2023-04-07T02:22:51;5.00;99.90
18934;DHT22;9599;53.706;10.384;2023-04-07T02:25:22;5.00;99.90
18934;DHT22;9599;53.706;10.384;2023-04-07T02:27:53;5.00;99.90
18934;DHT22;9599;53.706;10.384;2023-04-07T02:30:23;4.90;99.90
18934;DHT22;9599;53.706;10.384;2023-04-07T02:32:51;4.90;99.90
18934;DHT22;9599;53.706;10.384;2023-04-07T02:35:20;4.90;99.90
18934;DHT22;9599;53.706;10.384;2023-04-07T02:37:48;4.90;99.90
18934;DHT22;9599;53.706;10.384;2023-04-07T02:40:16;4.90;99.90
18934;DHT22;9599;53.706;10.384;2023-04-07T02:42:45;4.90;99.90
18934;DHT22;9599;53.706;10.384;2023-04-07T02:45:13;4.90;99.90
18934;DHT22;9599;53.706;10.384;2023-04-07T02:47:43;4.80;99.90
18934;DHT22;9599;53.706;10.384;2023-04-07T02:50:11;4.80;99.90
18934;DHT22;9599;53.706;10.384;2023-04-07T02:52:39;4.80;99.90
18934;DHT22;9599;53.706;10.384;2023-04-07T02:55:11;4.90;99.90
18934;DHT22;9599;53.706;10.384;2023-04-07T02:57:39;4.90;99.90
18934;DHT22;9599;53.706;10.384;2023-04-07T03:00:18;4.80;99.90
18934;DHT22;9599;53.706;10.384;2023-04-07T03:02:57;4.80;99.90
18934;DHT22;9599;53.706;10.384;2023-04-07T03:05:29;4.80;99.90
18934;DHT22;9599;53.706;10.384;2023-04-07T03:07:59;4.80;99.90
18934;DHT22;9599;53.706;10.384;2023-04-07T03:10:27;4.80;99.90
18934;DHT22;9599;53.706;10.384;2023-04-07T03:12:56;4.80;99.90
18934;DHT22;9599;53.706;10.384;2023-04-07T03:15:24;4.70;99.90
18934;DHT22;9599;53.706;10.384;2023-04-07T03:17:52;4.70;99.90
18934;DHT22;9599;53.706;10.384;2023-04-07T03:20:21;4.60;99.90
18934;DHT22;9599;53.706;10.384;2023-04-07T03:22:49;4.60;99.90
18934;DHT22;9599;53.706;10.384;2023-04-07T03:25:25;4.60;99.90
18934;DHT22;9599;53.706;10.384;2023-04-07T03:27:54;4.50;99.90
18934;DHT22;9599;53.706;10.384;2023-04-07T03:30:24;4.50;99.90
18934;DHT22;9599;53.706;10.384;2023-04-07T03:32:52;4.50;99.90
18934;DHT22;9599;53.706;10.384;2023-04-07T03:35:21;4.50;99.90
18934;DHT22;9599;53.706;10.384;2023-04-07T03:37:49;4.50;99.90
18934;DHT22;9599;53.706;10.384;2023-04-07T03:40:17;4.40;99.90
18934;DHT22;9599;53.706;10.384;2023-04-07T03:42:46;4.40;99.90
18934;DHT22;9599;53.706;10.384;2023-04-07T03:45:16;4.40;99.90
18934;DHT22;9599;53.706;10.384;2023-04-07T03:47:47;4.40;99.90
18934;DHT22;9599;53.706;10.384;2023-04-07T03:50:16;4.40;99.90
18934;DHT22;9599;53.706;10.384;2023-04-07T03:53:08;4.30;99.90
18934;DHT22;9599;53.706;10.384;2023-04-07T03:55:36;4.40;99.90
18934;DHT22;9599;53.706;10.384;2023-04-07T03:58:12;4.40;99.90
18934;DHT22;9599;53.706;10.384;2023-04-07T04:00:43;4.40;99.90
18934;DHT22;9599;53.706;10.384;2023-04-07T04:03:11;4.30;99.90
18934;DHT22;9599;53.706;10.384;2023-04-07T04:05:48;4.40;99.90
18934;DHT22;9599;53.706;10.384;2023-04-07T04:08:26;4.40;99.90
18934;DHT22;9599;53.706;10.384;2023-04-07T04:10:54;4.40;99.90
18934;DHT22;9599;53.706;10.384;2023-04-07T04:13:24;4.40;99.90
18934;DHT22;9599;53.706;10.384;2023-04-07T04:15:55;4.30;99.90
18934;DHT22;9599;53.706;10.384;2023-04-07T04:18:23;4.30;99.90
18934;DHT22;9599;53.706;10.384;2023-04-07T04:20:53;4.30;99.90
18934;DHT22;9599;53.706;10.384;2023-04-07T04:23:22;4.20;99.90
18934;DHT22;9599;53.706;10.384;2023-04-07T04:25:54;4.20;99.90
18934;DHT22;9599;53.706;10.384;2023-04-07T04:28:22;4.20;99.90
18934;DHT22;9599;53.706;10.384;2023-04-07T04:30:50;4.10;99.90
18934;DHT22;9599;53.706;10.384;2023-04-07T04:33:19;4.10;99.90
18934;DHT22;9599;53.706;10.384;2023-04-07T04:35:55;4.10;99.90
18934;DHT22;9599;53.706;10.384;2023-04-07T04:38:25;4.00;99.90
18934;DHT22;9599;53.706;10.384;2023-04-07T04:41:02;4.00;99.90
18934;DHT22;9599;53.706;10.384;2023-04-07T04:43:30;3.90;99.90
18934;DHT22;9599;53.706;10.384;2023-04-07T04:46:00;3.90;99.90
18934;DHT22;9599;53.706;10.384;2023-04-07T04:48:32;4.00;99.90
18934;DHT22;9599;53.706;10.384;2023-04-07T04:51:00;4.00;99.90
18934;DHT22;9599;53.706;10.384;2023-04-07T04:53:29;4.00;99.90
18934;DHT22;9599;53.706;10.384;2023-04-07T04:56:01;3.90;99.90
18934;DHT22;9599;53.706;10.384;2023-04-07T04:58:39;3.90;99.90
18934;DHT22;9599;53.706;10.384;2023-04-07T05:01:17;3.80;99.90
18934;DHT22;9599;53.706;10.384;2023-04-07T05:03:53;3.80;99.90
18934;DHT22;9599;53.706;10.384;2023-04-07T05:06:26;3.70;99.90
18934;DHT22;9599;53.706;10.384;2023-04-07T05:09:00;3.80;99.90
18934;DHT22;9599;53.706;10.384;2023-04-07T05:11:39;3.70;99.90
18934;DHT22;9599;53.706;10.384;2023-04-07T05:14:08;3.80;99.90
18934;DHT22;9599;53.706;10.384;2023-04-07T05:16:41;3.80;99.90
18934;DHT22;9599;53.706;10.384;2023-04-07T05:19:16;3.80;99.90
18934;DHT22;9599;53.706;10.384;2023-04-07T05:21:45;3.80;99.90
18934;DHT22;9599;53.706;10.384;2023-04-07T05:24:13;3.80;99.90
18934;DHT22;9599;53.706;10.384;2023-04-07T05:26:43;3.90;99.90
18934;DHT22;9599;53.706;10.384;2023-04-07T05:29:11;3.80;99.90
18934;DHT22;9599;53.706;10.384;2023-04-07T05:31:39;3.90;99.90
18934;DHT22;9599;53.706;10.384;2023-04-07T05:34:11;3.90;99.90
18934;DHT22;9599;53.706;10.384;2023-04-07T05:36:47;4.00;99.90
18934;DHT22;9599;53.706;10.384;2023-04-07T05:39:15;4.00;99.90
18934;DHT22;9599;53.706;10.384;2023-04-07T05:41:45;4.10;99.90
18934;DHT22;9599;53.706;10.384;2023-04-07T05:44:14;4.10;99.90
18934;DHT22;9599;53.706;10.384;2023-04-07T05:46:42;4.20;99.90
18934;DHT22;9599;53.706;10.384;2023-04-07T05:49:13;4.30;99.90
18934;DHT22;9599;53.706;10.384;2023-04-07T05:51:51;4.30;99.90
18934;DHT22;9599;53.706;10.384;2023-04-07T05:54:19;4.50;99.90
18934;DHT22;9599;53.706;10.384;2023-04-07T05:56:52;4.60;99.90
18934;DHT22;9599;53.706;10.384;2023-04-07T05:59:21;4.70;99.90
18934;DHT22;9599;53.706;10.384;2023-04-07T06:01:51;4.80;99.90
18934;DHT22;9599;53.706;10.384;2023-04-07T06:04:19;4.90;99.90
18934;DHT22;9599;53.706;10.384;2023-04-07T06:06:49;5.10;99.90
18934;DHT22;9599;53.706;10.384;2023-04-07T06:09:18;5.20;99.90
18934;DHT22;9599;53.706;10.384;2023-04-07T06:11:47;5.40;99.90
18934;DHT22;9599;53.706;10.384;2023-04-07T06:14:16;5.50;99.90
18934;DHT22;9599;53.706;10.384;2023-04-07T06:16:44;5.60;99.90
18934;DHT22;9599;53.706;10.384;2023-04-07T06:19:12;5.70;99.90
18934;DHT22;9599;53.706;10.384;2023-04-07T06:21:40;5.80;99.90
18934;DHT22;9599;53.706;10.384;2023-04-07T06:24:08;5.90;99.90
18934;DHT22;9599;53.706;10.384;2023-04-07T06:26:36;5.90;99.90
18934;DHT22;9599;53.706;10.384;2023-04-07T06:29:06;6.00;99.90
18934;DHT22;9599;53.706;10.384;2023-04-07T06:31:36;6.10;99.90
18934;DHT22;9599;53.706;10.384;2023-04-07T06:34:04;6.20;99.90
18934;DHT22;9599;53.706;10.384;2023-04-07T06:36:32;6.30;99.90
18934;DHT22;9599;53.706;10.384;2023-04-07T06:39:00;6.50;99.90
18934;DHT22;9599;53.706;10.384;2023-04-07T06:41:28;6.60;99.90
18934;DHT22;9599;53.706;10.384;2023-04-07T06:43:57;6.70;99.90
18934;DHT22;9599;53.706;10.384;2023-04-07T06:46:25;7.00;99.90
18934;DHT22;9599;53.706;10.384;2023-04-07T06:48:55;7.10;99.90
18934;DHT22;9599;53.706;10.384;2023-04-07T06:51:22;7.40;99.90
18934;DHT22;9599;53.706;10.384;2023-04-07T06:53:51;7.50;99.90
18934;DHT22;9599;53.706;10.384;2023-04-07T06:56:21;7.40;99.90
18934;DHT22;9599;53.706;10.384;2023-04-07T06:58:49;7.50;99.90
18934;DHT22;9599;53.706;10.384;2023-04-07T07:01:17;7.70;99.90
18934;DHT22;9599;53.706;10.384;2023-04-07T07:03:45;7.70;99.90
18934;DHT22;9599;53.706;10.384;2023-04-07T07:06:15;7.80;99.90
18934;DHT22;9599;53.706;10.384;2023-04-07T07:08:43;8.00;99.90
18934;DHT22;9599;53.706;10.384;2023-04-07T07:11:11;8.10;99.90
18934;DHT22;9599;53.706;10.384;2023-04-07T07:13:39;8.00;99.90
18934;DHT22;9599;53.706;10.384;2023-04-07T07:16:07;8.00;99.90
18934;DHT22;9599;53.706;10.384;2023-04-07T07:18:35;7.90;99.90
18934;DHT22;9599;53.706;10.384;2023-04-07T07:21:03;7.80;99.90
18934;DHT22;9599;53.706;10.384;2023-04-07T07:23:32;7.80;99.90
18934;DHT22;9599;53.706;10.384;2023-04-07T07:26:01;7.90;99.90
18934;DHT22;9599;53.706;10.384;2023-04-07T07:28:29;8.00;99.90
18934;DHT22;9599;53.706;10.384;2023-04-07T07:30:57;8.20;99.90
18934;DHT22;9599;53.706;10.384;2023-04-07T07:33:25;8.40;99.90
18934;DHT22;9599;53.706;10.384;2023-04-07T07:35:53;8.50;99.90
18934;DHT22;9599;53.706;10.384;2023-04-07T07:38:21;8.50;99.90
18934;DHT22;9599;53.706;10.384;2023-04-07T07:40:50;8.70;99.90
18934;DHT22;9599;53.706;10.384;2023-04-07T07:43:18;8.90;99.90
18934;DHT22;9599;53.706;10.384;2023-04-07T07:45:45;9.10;99.90
18934;DHT22;9599;53.706;10.384;2023-04-07T07:48:13;9.10;99.90
18934;DHT22;9599;53.706;10.384;2023-04-07T07:50:41;9.40;99.90
18934;DHT22;9599;53.706;10.384;2023-04-07T07:53:10;9.50;99.90
18934;DHT22;9599;53.706;10.384;2023-04-07T07:55:38;9.60;99.90
18934;DHT22;9599;53.706;10.384;2023-04-07T07:58:07;9.90;99.90
18934;DHT22;9599;53.706;10.384;2023-04-07T08:00:35;9.90;99.90
18934;DHT22;9599;53.706;10.384;2023-04-07T08:03:03;10.00;99.90
18934;DHT22;9599;53.706;10.384;2023-04-07T08:05:31;10.50;99.90
18934;DHT22;9599;53.706;10.384;2023-04-07T08:07:59;10.70;99.90
18934;DHT22;9599;53.706;10.384;2023-04-07T08:10:27;10.80;99.90
18934;DHT22;9599;53.706;10.384;2023-04-07T08:12:55;10.80;99.90
18934;DHT22;9599;53.706;10.384;2023-04-07T08:15:24;10.80;99.90
18934;DHT22;9599;53.706;10.384;2023-04-07T08:17:52;10.70;99.90
18934;DHT22;9599;53.706;10.384;2023-04-07T08:20:22;10.70;99.90
18934;DHT22;9599;53.706;10.384;2023-04-07T08:22:50;10.90;99.90
18934;DHT22;9599;53.706;10.384;2023-04-07T08:25:18;10.90;99.90
18934;DHT22;9599;53.706;10.384;2023-04-07T08:27:46;10.90;99.90
18934;DHT22;9599;53.706;10.384;2023-04-07T08:30:14;11.00;99.90
18934;DHT22;9599;53.706;10.384;2023-04-07T08:32:44;11.20;99.90
18934;DHT22;9599;53.706;10.384;2023-04-07T08:35:12;11.40;99.90
18934;DHT22;9599;53.706;10.384;2023-04-07T08:37:40;11.40;99.90
18934;DHT22;9599;53.706;10.384;2023-04-07T08:40:11;11.40;99.90
18934;DHT22;9599;53.706;10.384;2023-04-07T08:42:40;11.40;99.90
18934;DHT22;9599;53.706;10.384;2023-04-07T08:45:09;11.70;99.90
18934;DHT22;9599;53.706;10.384;2023-04-07T08:47:39;11.90;99.90
18934;DHT22;9599;53.706;10.384;2023-04-07T08:50:11;11.80;99.90
18934;DHT22;9599;53.706;10.384;2023-04-07T08:52:45;11.90;99.90
18934;DHT22;9599;53.706;10.384;2023-04-07T08:55:13;11.80;99.90
18934;DHT22;9599;53.706;10.384;2023-04-07T08:57:42;11.80;99.90
18934;DHT22;9599;53.706;10.384;2023-04-07T09:00:11;11.90;99.90
18934;DHT22;9599;53.706;10.384;2023-04-07T09:02:40;12.00;99.90
18934;DHT22;9599;53.706;10.384;2023-04-07T09:05:12;12.00;99.90
18934;DHT22;9599;53.706;10.384;2023-04-07T09:07:41;11.90;99.90
18934;DHT22;9599;53.706;10.384;2023-04-07T09:10:09;11.90;99.90
18934;DHT22;9599;53.706;10.384;2023-04-07T09:12:38;11.90;99.90
18934;DHT22;9599;53.706;10.384;2023-04-07T09:15:06;11.90;99.90
18934;DHT22;9599;53.706;10.384;2023-04-07T09:17:35;11.80;99.90
18934;DHT22;9599;53.706;10.384;2023-04-07T09:20:03;11.80;99.90
18934;DHT22;9599;53.706;10.384;2023-04-07T09:22:36;11.80;99.90
18934;DHT22;9599;53.706;10.384;2023-04-07T09:25:15;11.80;99.90
18934;DHT22;9599;53.706;10.384;2023-04-07T09:27:57;11.90;99.90
18934;DHT22;9599;53.706;10.384;2023-04-07T09:30:26;11.90;99.90
18934;DHT22;9599;53.706;10.384;2023-04-07T09:32:54;11.80;99.90
18934;DHT22;9599;53.706;10.384;2023-04-07T09:35:24;11.90;99.90
18934;DHT22;9599;53.706;10.384;2023-04-07T09:38:02;12.20;99.90
18934;DHT22;9599;53.706;10.384;2023-04-07T09:40:30;12.20;99.90
18934;DHT22;9599;53.706;10.384;2023-04-07T09:42:58;12.40;99.90
18934;DHT22;9599;53.706;10.384;2023-04-07T09:45:27;12.30;99.90
18934;DHT22;9599;53.706;10.384;2023-04-07T09:48:05;12.30;99.90
18934;DHT22;9599;53.706;10.384;2023-04-07T09:50:35;12.40;99.90
18934;DHT22;9599;53.706;10.384;2023-04-07T09:53:04;12.40;99.90
18934;DHT22;9599;53.706;10.384;2023-04-07T09:55:32;12.50;99.90
18934;DHT22;9599;53.706;10.384;2023-04-07T09:58:01;12.60;99.90
18934;DHT22;9599;53.706;10.384;2023-04-07T10:00:31;12.50;99.90
18934;DHT22;9599;53.706;10.384;2023-04-07T10:02:59;12.20;99.90
18934;DHT22;9599;53.706;10.384;2023-04-07T10:05:30;12.20;99.90
18934;DHT22;9599;53.706;10.384;2023-04-07T10:07:59;12.30;99.90
18934;DHT22;9599;53.706;10.384;2023-04-07T10:10:30;12.30;99.90
18934;DHT22;9599;53.706;10.384;2023-04-07T10:12:58;11.90;99.90
18934;DHT22;9599;53.706;10.384;2023-04-07T10:15:26;12.00;99.90
18934;DHT22;9599;53.706;10.384;2023-04-07T10:17:54;12.00;99.90
18934;DHT22;9599;53.706;10.384;2023-04-07T10:20:23;11.90;99.90
18934;DHT22;9599;53.706;10.384;2023-04-07T10:22:54;11.90;99.90
18934;DHT22;9599;53.706;10.384;2023-04-07T10:25:25;12.20;99.90
18934;DHT22;9599;53.706;10.384;2023-04-07T10:27:57;12.40;99.90
18934;DHT22;9599;53.706;10.384;2023-04-07T10:30:28;12.40;99.90
18934;DHT22;9599;53.706;10.384;2023-04-07T10:32:57;12.40;99.90
18934;DHT22;9599;53.706;10.384;2023-04-07T10:35:25;12.50;99.90
18934;DHT22;9599;53.706;10.384;2023-04-07T10:38:11;12.60;99.90
18934;DHT22;9599;53.706;10.384;2023-04-07T10:40:41;12.60;99.90
18934;DHT22;9599;53.706;10.384;2023-04-07T10:43:11;12.50;99.90
18934;DHT22;9599;53.706;10.384;2023-04-07T10:45:56;12.60;99.90
18934;DHT22;9599;53.706;10.384;2023-04-07T10:48:26;12.80;99.90
18934;DHT22;9599;53.706;10.384;2023-04-07T10:51:21;12.70;99.90
18934;DHT22;9599;53.706;10.384;2023-04-07T10:54:19;12.50;99.90
18934;DHT22;9599;53.706;10.384;2023-04-07T10:57:07;12.30;99.90
18934;DHT22;9599;53.706;10.384;2023-04-07T10:59:39;12.30;99.90
18934;DHT22;9599;53.706;10.384;2023-04-07T11:02:32;12.00;99.90
18934;DHT22;9599;53.706;10.384;2023-04-07T11:05:02;11.70;99.90
18934;DHT22;9599;53.706;10.384;2023-04-07T11:07:47;11.50;99.90
18934;DHT22;9599;53.706;10.384;2023-04-07T11:10:20;11.60;99.90
18934;DHT22;9599;53.706;10.384;2023-04-07T11:13:02;11.90;99.90
18934;DHT22;9599;53.706;10.384;2023-04-07T11:15:32;12.20;99.90
18934;DHT22;9599;53.706;10.384;2023-04-07T11:18:09;12.30;99.90
18934;DHT22;9599;53.706;10.384;2023-04-07T11:20:45;12.60;99.90
18934;DHT22;9599;53.706;10.384;2023-04-07T11:23:14;12.80;99.90
18934;DHT22;9599;53.706;10.384;2023-04-07T11:25:43;12.90;98.70
18934;DHT22;9599;53.706;10.384;2023-04-07T11:28:12;12.80;99.90
18934;DHT22;9599;53.706;10.384;2023-04-07T11:30:46;12.60;99.90
18934;DHT22;9599;53.706;10.384;2023-04-07T11:33:17;12.70;99.90
18934;DHT22;9599;53.706;10.384;2023-04-07T11:35:52;12.80;99.90
18934;DHT22;9599;53.706;10.384;2023-04-07T11:38:22;12.70;99.90
18934;DHT22;9599;53.706;10.384;2023-04-07T11:40:50;12.70;99.90
18934;DHT22;9599;53.706;10.384;2023-04-07T11:43:20;12.70;99.90
18934;DHT22;9599;53.706;10.384;2023-04-07T11:46:06;12.70;99.90
18934;DHT22;9599;53.706;10.384;2023-04-07T11:48:35;12.60;99.90
18934;DHT22;9599;53.706;10.384;2023-04-07T11:51:03;12.70;99.90
18934;DHT22;9599;53.706;10.384;2023-04-07T11:53:34;12.60;99.90
18934;DHT22;9599;53.706;10.384;2023-04-07T11:56:05;12.70;99.90
18934;DHT22;9599;53.706;10.384;2023-04-07T11:58:35;12.40;99.90
18934;DHT22;9599;53.706;10.384;2023-04-07T12:01:04;12.30;99.90
18934;DHT22;9599;53.706;10.384;2023-04-07T12:03:36;12.20;99.90
18934;DHT22;9599;53.706;10.384;2023-04-07T12:06:04;12.00;99.90
18934;DHT22;9599;53.706;10.384;2023-04-07T12:08:37;11.80;99.90
18934;DHT22;9599;53.706;10.384;2023-04-07T12:11:05;11.70;99.90
18934;DHT22;9599;53.706;10.384;2023-04-07T12:13:33;11.50;99.90
18934;DHT22;9599;53.706;10.384;2023-04-07T12:16:02;11.40;99.90
18934;DHT22;9599;53.706;10.384;2023-04-07T12:18:30;11.50;99.90
18934;DHT22;9599;53.706;10.384;2023-04-07T12:21:00;11.50;99.90
18934;DHT22;9599;53.706;10.384;2023-04-07T12:23:28;11.70;99.90
18934;DHT22;9599;53.706;10.384;2023-04-07T12:25:56;11.70;99.90
18934;DHT22;9599;53.706;10.384;2023-04-07T12:28:24;11.70;99.90
18934;DHT22;9599;53.706;10.384;2023-04-07T12:30:52;11.60;99.90
18934;DHT22;9599;53.706;10.384;2023-04-07T12:33:20;11.50;99.90
18934;DHT22;9599;53.706;10.384;2023-04-07T12:35:48;11.60;99.90
18934;DHT22;9599;53.706;10.384;2023-04-07T12:38:19;11.80;99.90
18934;DHT22;9599;53.706;10.384;2023-04-07T12:40:47;11.70;99.90
18934;DHT22;9599;53.706;10.384;2023-04-07T12:43:15;11.60;99.90
18934;DHT22;9599;53.706;10.384;2023-04-07T12:45:43;11.60;99.90
18934;DHT22;9599;53.706;10.384;2023-04-07T12:48:11;11.70;99.90
18934;DHT22;9599;53.706;10.384;2023-04-07T12:50:39;11.80;99.90
18934;DHT22;9599;53.706;10.384;2023-04-07T12:53:07;11.60;99.90
18934;DHT22;9599;53.706;10.384;2023-04-07T12:55:36;11.30;99.90
18934;DHT22;9599;53.706;10.384;2023-04-07T12:58:04;11.20;99.90
18934;DHT22;9599;53.706;10.384;2023-04-07T13:00:32;11.30;99.90
18934;DHT22;9599;53.706;10.384;2023-04-07T13:03:00;11.50;99.90
18934;DHT22;9599;53.706;10.384;2023-04-07T13:05:29;11.40;99.90
18934;DHT22;9599;53.706;10.384;2023-04-07T13:07:57;11.40;99.90
18934;DHT22;9599;53.706;10.384;2023-04-07T13:10:25;11.20;99.90
18934;DHT22;9599;53.706;10.384;2023-04-07T13:12:55;11.10;99.90
18934;DHT22;9599;53.706;10.384;2023-04-07T13:15:23;11.10;99.90
18934;DHT22;9599;53.706;10.384;2023-04-07T13:17:51;11.20;99.90
18934;DHT22;9599;53.706;10.384;2023-04-07T13:20:20;11.30;99.90
18934;DHT22;9599;53.706;10.384;2023-04-07T13:22:48;11.40;99.90
18934;DHT22;9599;53.706;10.384;2023-04-07T13:25:33;11.30;99.90
18934;DHT22;9599;53.706;10.384;2023-04-07T13:28:02;11.10;99.90
18934;DHT22;9599;53.706;10.384;2023-04-07T13:30:30;11.00;99.90
18934;DHT22;9599;53.706;10.384;2023-04-07T13:32:58;10.60;99.90
18934;DHT22;9599;53.706;10.384;2023-04-07T13:35:26;10.50;99.90
18934;DHT22;9599;53.706;10.384;2023-04-07T13:37:55;10.30;99.90
18934;DHT22;9599;53.706;10.384;2023-04-07T13:40:24;10.10;99.90
18934;DHT22;9599;53.706;10.384;2023-04-07T13:42:53;10.10;99.90
18934;DHT22;9599;53.706;10.384;2023-04-07T13:45:23;10.10;99.90
18934;DHT22;9599;53.706;10.384;2023-04-07T13:47:51;9.90;99.90
18934;DHT22;9599;53.706;10.384;2023-04-07T13:50:22;9.70;99.90
18934;DHT22;9599;53.706;10.384;2023-04-07T13:52:50;9.40;99.90
18934;DHT22;9599;53.706;10.384;2023-04-07T13:55:18;9.10;99.90
18934;DHT22;9599;53.706;10.384;2023-04-07T13:57:46;9.10;99.90
18934;DHT22;9599;53.706;10.384;2023-04-07T14:00:15;9.00;99.90
18934;DHT22;9599;53.706;10.384;2023-04-07T14:02:44;8.90;99.90
18934;DHT22;9599;53.706;10.384;2023-04-07T14:05:14;8.70;99.90
18934;DHT22;9599;53.706;10.384;2023-04-07T14:07:42;8.60;99.90
18934;DHT22;9599;53.706;10.384;2023-04-07T14:10:10;8.50;99.90
18934;DHT22;9599;53.706;10.384;2023-04-07T14:12:38;8.60;99.90
18934;DHT22;9599;53.706;10.384;2023-04-07T14:15:06;8.70;99.90
18934;DHT22;9599;53.706;10.384;2023-04-07T14:17:34;8.80;99.90
18934;DHT22;9599;53.706;10.384;2023-04-07T14:20:05;8.70;99.90
18934;DHT22;9599;53.706;10.384;2023-04-07T14:22:33;8.60;99.90
18934;DHT22;9599;53.706;10.384;2023-04-07T14:25:01;8.70;99.90
18934;DHT22;9599;53.706;10.384;2023-04-07T14:27:30;8.70;99.90
18934;DHT22;9599;53.706;10.384;2023-04-07T14:29:58;8.70;99.90
18934;DHT22;9599;53.706;10.384;2023-04-07T14:32:26;8.50;99.90
18934;DHT22;9599;53.706;10.384;2023-04-07T14:34:55;8.50;99.90
18934;DHT22;9599;53.706;10.384;2023-04-07T14:37:26;8.60;99.90
18934;DHT22;9599;53.706;10.384;2023-04-07T14:39:54;8.60;99.90
18934;DHT22;9599;53.706;10.384;2023-04-07T14:42:26;8.40;99.90
18934;DHT22;9599;53.706;10.384;2023-04-07T14:44:56;8.30;99.90
18934;DHT22;9599;53.706;10.384;2023-04-07T14:47:24;8.20;99.90
18934;DHT22;9599;53.706;10.384;2023-04-07T14:49:53;8.20;99.90
18934;DHT22;9599;53.706;10.384;2023-04-07T14:52:22;8.10;99.90
18934;DHT22;9599;53.706;10.384;2023-04-07T14:54:51;8.20;99.90
18934;DHT22;9599;53.706;10.384;2023-04-07T14:57:19;8.00;99.90
18934;DHT22;9599;53.706;10.384;2023-04-07T14:59:47;8.00;99.90
18934;DHT22;9599;53.706;10.384;2023-04-07T15:02:15;8.10;99.90
18934;DHT22;9599;53.706;10.384;2023-04-07T15:04:44;8.00;99.90
18934;DHT22;9599;53.706;10.384;2023-04-07T15:07:12;8.00;99.90
18934;DHT22;9599;53.706;10.384;2023-04-07T15:09:39;8.00;99.90
18934;DHT22;9599;53.706;10.384;2023-04-07T15:12:09;7.90;99.90
18934;DHT22;9599;53.706;10.384;2023-04-07T15:14:37;7.90;99.90
18934;DHT22;9599;53.706;10.384;2023-04-07T15:17:05;7.90;99.90
18934;DHT22;9599;53.706;10.384;2023-04-07T15:19:33;7.90;99.90
18934;DHT22;9599;53.706;10.384;2023-04-07T15:22:01;7.80;99.90
18934;DHT22;9599;53.706;10.384;2023-04-07T15:24:29;7.70;99.90
18934;DHT22;9599;53.706;10.384;2023-04-07T15:26:56;7.70;99.90
18934;DHT22;9599;53.706;10.384;2023-04-07T15:29:26;7.70;99.90
18934;DHT22;9599;53.706;10.384;2023-04-07T15:31:53;7.70;99.90
18934;DHT22;9599;53.706;10.384;2023-04-07T15:34:22;7.70;99.90
18934;DHT22;9599;53.706;10.384;2023-04-07T15:36:50;7.80;99.90
18934;DHT22;9599;53.706;10.384;2023-04-07T15:39:17;7.80;99.90
18934;DHT22;9599;53.706;10.384;2023-04-07T15:41:45;7.80;99.90
18934;DHT22;9599;53.706;10.384;2023-04-07T15:44:16;7.80;99.90
18934;DHT22;9599;53.706;10.384;2023-04-07T15:46:46;7.60;99.90
18934;DHT22;9599;53.706;10.384;2023-04-07T15:49:15;7.60;99.90
18934;DHT22;9599;53.706;10.384;2023-04-07T15:51:49;7.50;99.90
18934;DHT22;9599;53.706;10.384;2023-04-07T15:54:17;7.40;99.90
18934;DHT22;9599;53.706;10.384;2023-04-07T15:56:45;7.50;99.90
18934;DHT22;9599;53.706;10.384;2023-04-07T15:59:13;7.50;99.90